createdAt,value
2019-06-08T00:01:58.998Z,100822.14
2019-06-08T00:04:34.378Z,100825.59
2019-06-08T00:07:14.771Z,100816.81
2019-06-08T00:09:50.252Z,100810.06
2019-06-08T00:12:24.859Z,100818.14
2019-06-08T00:14:59.671Z,100815.34
2019-06-08T00:17:38.385Z,100813.43
2019-06-08T00:20:10.594Z,100805.31
2019-06-08T00:22:45.585Z,100811.13
2019-06-08T00:25:20.830Z,100809.42
2019-06-08T00:27:55.858Z,100813.50
2019-06-08T00:30:30.776Z,100809.80
2019-06-08T00:33:04.788Z,100809.98
2019-06-08T00:35:39.334Z,100813.75
2019-06-08T00:38:16.796Z,100814.00
2019-06-08T00:40:51.321Z,100813.04
2019-06-08T00:43:25.550Z,100817.27
2019-06-08T00:46:01.770Z,100820.02
2019-06-08T00:48:37.946Z,100822.00
2019-06-08T00:51:11.933Z,100814.69
2019-06-08T00:53:45.728Z,100815.61
2019-06-08T00:56:19.969Z,100816.77
2019-06-08T00:58:54.412Z,100819.44
2019-06-08T01:01:30.785Z,100821.66
2019-06-08T01:04:04.939Z,100819.79
2019-06-08T01:06:40.033Z,100821.19
2019-06-08T01:09:15.021Z,100815.38
2019-06-08T01:11:50.424Z,100814.53
2019-06-08T01:14:27.104Z,100810.33
2019-06-08T01:17:03.200Z,100813.69
2019-06-08T01:19:38.197Z,100813.69
2019-06-08T01:22:12.455Z,100810.70
2019-06-08T01:24:47.072Z,100818.33
2019-06-08T01:27:23.832Z,100824.52
2019-06-08T01:29:58.434Z,100826.27
2019-06-08T01:32:34.080Z,100824.83
2019-06-08T01:35:09.646Z,100821.48
2019-06-08T01:37:44.109Z,100823.50
2019-06-08T01:40:21.220Z,100816.93
2019-06-08T01:42:56.121Z,100823.05
2019-06-08T01:45:33.761Z,100819.12
2019-06-08T01:48:19.942Z,100815.28
2019-06-08T01:50:45.884Z,100816.69
2019-06-08T01:53:19.780Z,100816.52
2019-06-08T01:55:53.866Z,100822.16
2019-06-08T01:58:29.484Z,100816.37
2019-06-08T02:01:04.422Z,100821.72
2019-06-08T02:03:39.855Z,100821.86
2019-06-08T02:06:15.242Z,100823.73
2019-06-08T02:08:49.503Z,100823.19
2019-06-08T02:11:22.852Z,100821.48
2019-06-08T02:13:58.778Z,100822.40
2019-06-08T02:16:35.461Z,100826.81
2019-06-08T02:19:10.565Z,100828.76
2019-06-08T02:21:44.575Z,100829.61
2019-06-08T02:24:35.461Z,100832.14
2019-06-08T02:27:20.224Z,100838.58
2019-06-08T02:31:11.571Z,100833.00
2019-06-08T02:33:53.911Z,100841.53
2019-06-08T02:36:38.085Z,100841.47
2019-06-08T02:39:13.973Z,100841.39
2019-06-08T02:41:49.553Z,100848.29
2019-06-08T02:44:28.157Z,100843.80
2019-06-08T02:47:04.157Z,100844.89
2019-06-08T02:49:39.744Z,100846.55
2019-06-08T02:52:29.879Z,100851.08
2019-06-08T02:55:07.551Z,100852.70
2019-06-08T02:57:44.710Z,100856.45
2019-06-08T03:00:25.635Z,100857.78
2019-06-08T03:03:08.568Z,100867.11
2019-06-08T03:05:54.498Z,100869.40
2019-06-08T03:08:32.389Z,100874.56
2019-06-08T03:11:09.373Z,100868.88
2019-06-08T03:13:47.017Z,100880.30
2019-06-08T03:16:43.325Z,100882.92
2019-06-08T03:19:56.394Z,100888.73
2019-06-08T03:22:38.853Z,100891.88
2019-06-08T03:25:22.643Z,100891.71
2019-06-08T03:28:00.313Z,100890.92
2019-06-08T03:30:44.587Z,100895.64
2019-06-08T03:33:16.225Z,100896.40
2019-06-08T03:35:56.824Z,100893.98
2019-06-08T03:38:26.032Z,100893.38
2019-06-08T03:41:02.203Z,100897.63
2019-06-08T03:43:38.153Z,100896.91
2019-06-08T03:46:16.543Z,100901.23
2019-06-08T03:49:40.504Z,100901.54
2019-06-08T03:52:05.786Z,100903.25
2019-06-08T03:55:46.617Z,100908.28
2019-06-08T03:58:28.857Z,100912.22
2019-06-08T04:01:31.820Z,100919.27
2019-06-08T04:04:07.191Z,100924.30
2019-06-08T04:06:43.706Z,100919.27
2019-06-08T04:09:18.555Z,100916.16
2019-06-08T04:11:53.483Z,100917.94
2019-06-08T04:14:28.379Z,100917.77
2019-06-08T04:17:04.032Z,100912.38
2019-06-08T04:20:01.620Z,100911.73
2019-06-08T04:22:16.598Z,100913.72
2019-06-08T04:24:50.702Z,100924.73
2019-06-08T04:27:26.002Z,100914.19
2019-06-08T04:30:01.740Z,100925.41
2019-06-08T04:32:36.147Z,100917.40
2019-06-08T04:35:11.041Z,100920.45
2019-06-08T04:37:46.756Z,100921.95
2019-06-08T04:40:21.060Z,100930.98
2019-06-08T04:42:56.207Z,100935.30
2019-06-08T04:45:32.032Z,100914.36
2019-06-08T04:48:11.567Z,100936.46
2019-06-08T04:50:47.411Z,100942.34
2019-06-08T04:53:20.754Z,100949.25
2019-06-08T04:55:54.055Z,100957.26
2019-06-08T04:58:27.776Z,100957.87
2019-06-08T05:01:01.372Z,100957.73
2019-06-08T05:03:34.829Z,100965.63
2019-06-08T05:06:08.332Z,100962.72
2019-06-08T05:08:42.993Z,100969.80
2019-06-08T05:11:16.527Z,100980.48
2019-06-08T05:13:49.968Z,100973.40
2019-06-08T05:16:23.389Z,100984.24
2019-06-08T05:18:56.688Z,100991.30
2019-06-08T05:21:30.064Z,100985.71
2019-06-08T05:24:03.858Z,101004.30
2019-06-08T05:26:39.641Z,101010.36
2019-06-08T05:29:14.546Z,101006.03
2019-06-08T05:31:49.617Z,101011.52
2019-06-08T05:34:23.247Z,101018.33
2019-06-08T05:36:56.603Z,101016.55
2019-06-08T05:39:30.059Z,101020.19
2019-06-08T05:42:03.406Z,101021.94
2019-06-08T05:44:36.894Z,101021.32
2019-06-08T05:47:11.937Z,101021.28
2019-06-08T05:49:45.801Z,101027.83
2019-06-08T05:52:19.423Z,101029.97
2019-06-08T05:54:52.891Z,101032.86
2019-06-08T05:57:26.439Z,101031.56
2019-06-08T06:00:00.078Z,101036.84
2019-06-08T06:02:33.481Z,101037.63
2019-06-08T06:05:07.608Z,101034.45
2019-06-08T06:07:41.136Z,101033.78
2019-06-08T06:10:15.278Z,101026.31
2019-06-08T06:12:49.086Z,101030.23
2019-06-08T06:15:23.093Z,101038.47
2019-06-08T06:17:56.587Z,101040.37
2019-06-08T06:20:30.115Z,101054.78
2019-06-08T06:23:03.703Z,101064.23
2019-06-08T06:25:37.247Z,101071.22
2019-06-08T06:28:10.469Z,101071.13
2019-06-08T06:30:44.239Z,101073.35
2019-06-08T06:33:17.913Z,101075.45
2019-06-08T06:35:52.166Z,101092.20
2019-06-08T06:38:25.657Z,101096.39
2019-06-08T06:40:58.932Z,101092.27
2019-06-08T06:43:32.296Z,101089.17
2019-06-08T06:46:05.722Z,101084.87
2019-06-08T06:48:39.039Z,101092.70
2019-06-08T06:51:25.182Z,101093.09
2019-06-08T06:53:48.801Z,101094.23
2019-06-08T06:56:24.262Z,101091.56
2019-06-08T06:58:57.640Z,101084.89
2019-06-08T07:01:31.192Z,101091.83
2019-06-08T07:04:04.583Z,101098.13
2019-06-08T07:06:38.104Z,101101.86
2019-06-08T07:09:11.638Z,101097.27
2019-06-08T07:11:44.927Z,101089.62
2019-06-08T07:14:18.251Z,101085.80
2019-06-08T07:16:51.985Z,101095.69
2019-06-08T07:19:25.545Z,101098.30
2019-06-08T07:21:58.845Z,101093.97
2019-06-08T07:24:33.363Z,101103.52
2019-06-08T07:27:07.664Z,101115.03
2019-06-08T07:29:41.596Z,101122.38
2019-06-08T07:32:14.978Z,101131.09
2019-06-08T07:34:49.915Z,101126.73
2019-06-08T07:37:23.832Z,101135.53
2019-06-08T07:39:57.646Z,101138.34
2019-06-08T07:42:31.684Z,101143.88
2019-06-08T07:45:05.314Z,101145.70
2019-06-08T07:47:39.151Z,101151.56
2019-06-08T07:50:13.155Z,101154.35
2019-06-08T07:52:47.968Z,101155.50
2019-06-08T07:55:38.294Z,101164.03
2019-06-08T07:58:13.589Z,101164.03
2019-06-08T08:00:47.101Z,101179.33
2019-06-08T08:03:20.542Z,101170.42
2019-06-08T08:05:55.029Z,101167.34
2019-06-08T08:08:29.408Z,101176.04
2019-06-08T08:11:03.670Z,101176.04
2019-06-08T08:13:37.462Z,101183.76
2019-06-08T08:16:11.153Z,101179.63
2019-06-08T08:18:44.731Z,101190.28
2019-06-08T08:21:23.219Z,101197.50
2019-06-08T08:23:53.480Z,101191.70
2019-06-08T08:26:28.129Z,101191.70
2019-06-08T08:29:03.216Z,101200.13
2019-06-08T08:31:38.672Z,101200.13
2019-06-08T08:34:18.290Z,101207.03
2019-06-08T08:36:54.159Z,101206.05
2019-06-08T08:39:31.412Z,101215.88
2019-06-08T08:42:17.983Z,101215.88
2019-06-08T08:44:59.329Z,101207.80
2019-06-08T08:47:38.433Z,101224.02
2019-06-08T08:50:13.098Z,101225.09
2019-06-08T08:52:47.702Z,101225.09
2019-06-08T08:56:30.627Z,101238.94
2019-06-08T08:59:30.845Z,101243.70
2019-06-08T09:02:12.046Z,101243.70
2019-06-08T09:04:49.123Z,101253.34
2019-06-08T09:07:23.729Z,101256.87
2019-06-08T09:10:03.518Z,101256.87
2019-06-08T09:12:37.685Z,101261.92
2019-06-08T09:15:13.257Z,101261.92
2019-06-08T09:18:03.689Z,101272.09
2019-06-08T09:20:47.762Z,101275.25
2019-06-08T09:23:27.976Z,101275.25
2019-06-08T09:27:09.532Z,101293.86
2019-06-08T09:29:45.123Z,101289.30
2019-06-08T09:32:18.826Z,101287.14
2019-06-08T09:35:02.785Z,101290.16
2019-06-08T09:37:37.485Z,101286.77
2019-06-08T09:40:10.769Z,101309.34
2019-06-08T09:42:45.100Z,101309.34
2019-06-08T09:48:41.842Z,101332.08
2019-06-08T09:51:29.175Z,101315.03
2019-06-08T09:54:06.065Z,101319.70
2019-06-08T09:56:38.138Z,101350.27
2019-06-08T09:59:15.003Z,101354.34
2019-06-08T10:01:47.120Z,101354.34
2019-06-08T10:04:20.838Z,101346.94
2019-06-08T10:06:54.560Z,101353.93
2019-06-08T10:09:28.433Z,101355.31
2019-06-08T10:12:04.597Z,101355.31
2019-06-08T10:36:58.876Z,101382.59
2019-06-08T10:39:32.492Z,101388.25
2019-06-08T10:42:07.159Z,101389.42
2019-06-08T10:44:40.634Z,101384.32
2019-06-08T10:47:14.678Z,101384.32
2019-06-08T10:49:49.028Z,101394.39
2019-06-08T10:52:22.235Z,101383.09
2019-06-08T10:54:55.322Z,101394.87
2019-06-08T10:57:28.946Z,101386.72
2019-06-08T11:00:12.422Z,101386.72
2019-06-08T11:02:37.595Z,101402.28
2019-06-08T11:05:14.045Z,101394.80
2019-06-08T11:07:48.036Z,101408.31
2019-06-08T11:10:21.461Z,101406.78
2019-06-08T11:12:54.494Z,101406.78
2019-06-08T11:15:29.856Z,101409.75
2019-06-08T11:18:06.653Z,101412.08
2019-06-08T11:20:38.209Z,101412.08
2019-06-08T11:23:12.579Z,101430.89
2019-06-08T11:25:45.978Z,101430.89
2019-06-08T11:28:19.307Z,101431.26
2019-06-08T11:30:52.479Z,101431.26
2019-06-08T11:33:25.703Z,101439.03
2019-06-08T11:36:02.972Z,101438.74
2019-06-08T11:38:33.637Z,101435.38
2019-06-08T11:41:12.182Z,101438.62
2019-06-08T11:43:42.723Z,101439.16
2019-06-08T11:46:18.991Z,101445.47
2019-06-08T11:48:51.420Z,101452.52
2019-06-08T11:51:24.548Z,101457.97
2019-06-08T11:53:59.416Z,101454.48
2019-06-08T11:56:33.885Z,101456.37
2019-06-08T11:59:13.800Z,101453.34
2019-06-08T12:01:51.536Z,101450.48
2019-06-08T12:04:31.959Z,101449.41
2019-06-08T12:07:31.590Z,101451.41
2019-06-08T12:19:57.642Z,101448.47
2019-06-08T12:22:30.819Z,101451.00
2019-06-08T12:25:04.227Z,101449.28
2019-06-08T12:27:40.134Z,101440.64
2019-06-08T12:30:20.498Z,101448.35
2019-06-08T13:01:40.611Z,101431.06
2019-06-08T13:04:14.018Z,101432.59
2019-06-08T13:06:48.336Z,101425.70
2019-06-08T13:09:21.615Z,101428.20
2019-06-08T13:11:57.018Z,101431.56
2019-06-08T13:14:29.915Z,101424.83
2019-06-08T13:17:03.191Z,101428.96
2019-06-08T13:19:38.756Z,101430.27
2019-06-08T13:22:12.746Z,101429.14
2019-06-08T13:24:47.854Z,101430.11
2019-06-08T13:27:23.025Z,101431.11
2019-06-08T13:29:57.756Z,101424.63
2019-06-08T13:32:30.804Z,101427.55
2019-06-08T13:35:04.225Z,101426.83
2019-06-08T13:37:39.031Z,101428.23
2019-06-08T13:40:15.220Z,101427.42
2019-06-08T13:42:51.225Z,101427.51
2019-06-08T13:45:24.502Z,101433.37
2019-06-08T13:47:58.692Z,101431.95
2019-06-08T13:50:32.175Z,101430.11
2019-06-08T13:53:10.620Z,101433.86
2019-06-08T13:55:55.009Z,101430.77
2019-06-08T13:58:22.282Z,101428.88
2019-06-08T14:00:52.105Z,101425.69
2019-06-08T14:03:27.553Z,101429.50
2019-06-08T14:06:00.253Z,101428.35
2019-06-08T14:08:34.043Z,101435.08
2019-06-08T14:11:09.901Z,101447.22
2019-06-08T14:13:43.217Z,101447.22
2019-06-08T14:16:20.174Z,101435.38
2019-06-08T14:18:51.572Z,101435.38
2019-06-08T14:21:31.965Z,101447.89
2019-06-08T14:24:00.849Z,101446.45
2019-06-08T14:26:37.385Z,101432.23
2019-06-08T14:29:10.047Z,101432.23
2019-06-08T14:31:45.195Z,101446.88
2019-06-08T14:34:21.805Z,101456.75
2019-06-08T14:36:54.678Z,101463.08
2019-06-08T14:39:31.021Z,101462.41
2019-06-08T14:42:02.724Z,101462.41
2019-06-08T14:44:38.067Z,101474.16
2019-06-08T14:47:14.652Z,101474.16
2019-06-08T14:49:48.974Z,101461.58
2019-06-08T14:52:23.813Z,101461.58
2019-06-08T14:54:58.659Z,101465.73
2019-06-08T14:57:32.423Z,101467.76
2019-06-08T15:00:09.637Z,101467.76
2019-06-08T15:02:41.932Z,101459.41
2019-06-08T15:05:18.159Z,101451.20
2019-06-08T15:07:50.796Z,101442.20
2019-06-08T15:10:24.057Z,101456.32
2019-06-08T15:12:57.832Z,101461.81
2019-06-08T15:15:32.281Z,101461.81
2019-06-08T15:18:08.403Z,101454.89
2019-06-08T15:20:40.678Z,101442.48
2019-06-08T15:23:16.827Z,101451.43
2019-06-08T15:25:50.059Z,101455.47
2019-06-08T15:28:24.685Z,101455.81
2019-06-08T15:31:00.048Z,101461.02
2019-06-08T15:33:33.634Z,101453.61
2019-06-08T15:36:08.530Z,101465.73
2019-06-08T15:38:42.951Z,101465.73
2019-06-08T15:41:18.052Z,101475.14
2019-06-08T15:43:53.861Z,101476.58
2019-06-08T15:46:28.561Z,101481.77
2019-06-08T15:49:01.816Z,101481.77
2019-06-08T15:51:40.160Z,101481.84
2019-06-08T15:54:10.110Z,101486.66
2019-06-08T15:56:49.441Z,101490.12
2019-06-08T15:59:18.170Z,101488.28
2019-06-08T16:01:51.439Z,101492.89
2019-06-08T16:04:25.714Z,101495.75
2019-06-08T16:06:59.253Z,101492.97
2019-06-08T16:09:32.658Z,101494.03
2019-06-08T16:12:06.072Z,101504.66
2019-06-08T16:14:41.453Z,101502.08
2019-06-08T16:17:14.644Z,101509.86
2019-06-08T16:19:48.014Z,101504.76
2019-06-08T16:22:21.189Z,101503.58
2019-06-08T16:24:54.434Z,101504.34
2019-06-08T16:27:27.739Z,101508.09
2019-06-08T16:30:08.666Z,101511.33
2019-06-08T16:32:36.603Z,101513.56
2019-06-08T16:35:10.683Z,101526.48
2019-06-08T16:37:43.980Z,101520.19
2019-06-08T16:40:17.224Z,101527.19
2019-06-08T16:42:50.891Z,101527.83
2019-06-08T16:45:24.096Z,101529.37
2019-06-08T16:47:57.367Z,101530.98
2019-06-08T16:50:30.614Z,101529.27
2019-06-08T16:53:03.858Z,101533.56
2019-06-08T16:55:38.370Z,101532.41
2019-06-08T16:58:11.875Z,101537.48
2019-06-08T17:00:45.525Z,101543.03
2019-06-08T17:03:18.885Z,101539.09
2019-06-08T17:05:52.206Z,101541.67
2019-06-08T17:08:25.407Z,101535.78
2019-06-08T17:10:58.582Z,101540.00
2019-06-08T17:13:31.985Z,101537.69
2019-06-08T17:16:05.221Z,101540.00
2019-06-08T17:18:38.567Z,101536.95
2019-06-08T17:21:11.840Z,101544.03
2019-06-08T17:23:44.966Z,101543.92
2019-06-08T17:26:18.163Z,101546.71
2019-06-08T17:28:51.331Z,101546.16
2019-06-08T17:31:24.583Z,101546.97
2019-06-08T17:33:57.887Z,101548.98
2019-06-08T17:36:31.931Z,101550.11
2019-06-08T17:39:06.722Z,101551.96
2019-06-08T17:41:40.225Z,101555.35
2019-06-08T17:44:13.533Z,101557.10
2019-06-08T17:46:48.298Z,101560.97
2019-06-08T17:49:22.972Z,101560.05
2019-06-08T17:51:56.197Z,101547.77
2019-06-08T17:54:29.387Z,101569.09
2019-06-08T17:57:02.603Z,101542.73
2019-06-08T17:59:35.875Z,101570.69
2019-06-08T18:02:12.095Z,101571.83
2019-06-08T18:04:44.936Z,101576.25
2019-06-08T18:07:18.239Z,101572.71
2019-06-08T18:09:51.612Z,101576.61
2019-06-08T18:12:27.011Z,101580.33
2019-06-08T18:14:59.659Z,101572.05
2019-06-08T18:17:33.990Z,101571.03
2019-06-08T18:20:08.394Z,101572.44
2019-06-08T18:22:44.388Z,101576.94
2019-06-08T18:25:18.071Z,101582.86
2019-06-08T18:28:06.591Z,101588.16
2019-06-08T18:30:27.605Z,101589.66
2019-06-08T18:33:01.265Z,101593.37
2019-06-08T18:35:37.357Z,101598.50
2019-06-08T18:38:09.547Z,101601.59
2019-06-08T18:40:43.471Z,101611.96
2019-06-08T18:43:17.104Z,101617.08
2019-06-08T18:45:51.923Z,101622.67
2019-06-08T18:48:25.268Z,101618.89
2019-06-08T18:50:58.537Z,101622.12
2019-06-08T18:53:49.153Z,101621.55
2019-06-08T18:56:12.355Z,101632.88
2019-06-08T18:58:53.371Z,101637.84
2019-06-08T19:01:27.511Z,101652.31
2019-06-08T19:04:04.498Z,101658.86
2019-06-08T19:06:40.564Z,101660.87
2019-06-08T19:09:13.686Z,101662.52
2019-06-08T19:11:48.709Z,101669.98
2019-06-08T19:14:23.038Z,101670.68
2019-06-08T19:16:58.144Z,101670.86
2019-06-08T19:19:33.832Z,101679.13
2019-06-08T19:22:10.249Z,101679.02
2019-06-08T19:24:49.452Z,101679.30
2019-06-08T19:27:21.852Z,101681.00
2019-06-08T19:29:57.762Z,101689.23
2019-06-08T19:32:30.951Z,101690.13
2019-06-08T19:35:04.364Z,101691.55
2019-06-08T19:37:39.666Z,101690.81
2019-06-08T19:40:13.320Z,101694.05
2019-06-08T19:42:55.440Z,101701.33
2019-06-08T19:45:21.942Z,101699.38
2019-06-08T19:47:58.151Z,101704.34
2019-06-08T19:50:31.791Z,101713.72
2019-06-08T19:53:07.362Z,101715.29
2019-06-08T19:55:41.202Z,101716.89
2019-06-08T19:58:14.677Z,101724.95
2019-06-08T20:00:52.308Z,101725.42
2019-06-08T20:03:22.894Z,101725.61
2019-06-08T20:05:56.625Z,101730.69
2019-06-08T20:08:32.513Z,101735.67
2019-06-08T20:11:08.294Z,101739.26
2019-06-08T20:13:45.351Z,101734.87
2019-06-08T20:16:23.288Z,101740.12
2019-06-08T20:18:58.606Z,101749.36
2019-06-08T20:21:32.671Z,101754.57
2019-06-08T20:24:10.151Z,101759.05
2019-06-08T20:26:44.682Z,101753.62
2019-06-08T20:29:20.082Z,101756.97
2019-06-08T20:31:53.879Z,101758.89
2019-06-08T20:34:27.282Z,101761.54
2019-06-08T20:37:02.068Z,101759.98
2019-06-08T20:39:38.011Z,101764.53
2019-06-08T20:42:13.239Z,101770.92
2019-06-08T20:44:51.567Z,101775.47
2019-06-08T20:47:27.643Z,101778.06
2019-06-08T20:50:02.744Z,101780.75
2019-06-08T20:52:37.817Z,101775.63
2019-06-08T20:55:13.859Z,101783.80
2019-06-08T20:57:52.346Z,101781.92
2019-06-08T21:00:30.818Z,101776.16
2019-06-08T21:03:07.949Z,101785.64
2019-06-08T21:11:19.706Z,101786.41
2019-06-08T21:19:20.454Z,101791.98
2019-06-08T21:21:59.150Z,101801.86
2019-06-08T21:24:31.818Z,101809.66
2019-06-08T21:27:08.006Z,101814.71
2019-06-08T21:29:49.435Z,101816.87
2019-06-08T21:32:17.677Z,101817.04
2019-06-08T21:34:52.655Z,101822.15
2019-06-08T21:37:28.857Z,101824.81
2019-06-08T21:40:04.188Z,101822.02
2019-06-08T21:42:37.695Z,101818.09
2019-06-08T21:45:11.210Z,101823.42
2019-06-08T21:47:44.502Z,101823.85
2019-06-08T21:50:18.611Z,101827.91
2019-06-08T21:52:53.182Z,101831.40
2019-06-08T21:55:28.030Z,101829.86
2019-06-08T21:58:02.070Z,101841.61
2019-06-08T22:00:40.328Z,101844.38
2019-06-08T22:03:12.519Z,101854.06
2019-06-08T22:05:49.780Z,101855.69
2019-06-08T22:08:23.594Z,101864.55
2019-06-08T22:10:59.018Z,101866.53
2019-06-08T22:13:31.796Z,101866.94
2019-06-08T22:16:07.754Z,101863.98
2019-06-08T22:18:39.938Z,101866.97
2019-06-08T22:21:13.290Z,101868.70
2019-06-08T22:23:47.647Z,101875.28
2019-06-08T22:26:20.994Z,101871.25
2019-06-08T22:28:55.368Z,101875.53
2019-06-08T22:31:28.812Z,101876.48
2019-06-08T22:34:04.972Z,101880.78
2019-06-08T22:36:38.728Z,101880.48
2019-06-08T22:39:12.038Z,101883.80
2019-06-08T22:41:47.665Z,101879.28
2019-06-08T22:44:20.606Z,101876.27
2019-06-08T22:46:55.366Z,101882.00
2019-06-08T22:49:29.345Z,101882.42
2019-06-08T22:52:04.300Z,101882.91
2019-06-08T22:54:38.444Z,101895.67
2019-06-08T22:57:13.049Z,101900.34
2019-06-08T22:59:48.914Z,101898.66
2019-06-08T23:02:23.206Z,101902.55
2019-06-08T23:04:59.531Z,101906.75
2019-06-08T23:07:33.793Z,101910.03
2019-06-08T23:10:09.003Z,101909.98
2019-06-08T23:12:43.382Z,101914.02
2019-06-08T23:15:18.353Z,101913.33
2019-06-08T23:17:52.220Z,101912.77
2019-06-08T23:20:27.619Z,101914.48
2019-06-08T23:23:03.070Z,101918.92
2019-06-08T23:25:37.481Z,101921.20
2019-06-08T23:28:11.817Z,101914.67
2019-06-08T23:31:01.156Z,101923.97
2019-06-08T23:33:23.184Z,101929.10
2019-06-08T23:36:35.187Z,101925.67
2019-06-08T23:38:31.517Z,101929.25
2019-06-08T23:41:05.602Z,101935.53
2019-06-08T23:43:39.054Z,101939.05
2019-06-08T23:46:12.515Z,101935.86
2019-06-08T23:48:48.421Z,101940.69
2019-06-08T23:51:21.183Z,101942.87
2019-06-08T23:53:55.070Z,101944.61
2019-06-08T23:56:31.044Z,101937.03
2019-06-08T23:59:07.601Z,101938.51
